createdAt,value
2022-07-29T00:01:49.497Z,98358.06
2022-07-29T00:04:18.078Z,98354.63
2022-07-29T00:06:46.441Z,98359.03
2022-07-29T00:09:14.505Z,98351.59
2022-07-29T00:11:42.605Z,98348.25
2022-07-29T00:14:10.801Z,98339.38
2022-07-29T00:16:38.870Z,98334.66
2022-07-29T00:19:10.803Z,98325.91
2022-07-29T00:21:39.028Z,98333.84
2022-07-29T00:24:07.452Z,98335.84
2022-07-29T00:26:35.541Z,98340.16
2022-07-29T00:29:33.021Z,98341.41
2022-07-29T00:31:55.026Z,98351.25
2022-07-29T00:34:42.000Z,98345.28
2022-07-29T00:37:10.091Z,98340.28
2022-07-29T00:39:40.606Z,98334.81
2022-07-29T00:42:09.148Z,98336.72
2022-07-29T00:44:40.631Z,98350.28
2022-07-29T00:47:09.026Z,98348.84
2022-07-29T00:49:39.974Z,98338.66
2022-07-29T00:52:09.421Z,98334.69
2022-07-29T00:54:43.913Z,98337.13
2022-07-29T00:57:14.881Z,98324.94
2022-07-29T00:59:43.025Z,98309.38
2022-07-29T01:02:11.150Z,98306.19
2022-07-29T01:04:41.311Z,98310.84
2022-07-29T01:07:09.656Z,98304.72
2022-07-29T01:09:46.458Z,98301.25
2022-07-29T01:12:17.221Z,98314.00
2022-07-29T01:14:46.367Z,98309.09
2022-07-29T01:17:16.315Z,98300.47
2022-07-29T01:19:51.767Z,98307.63
2022-07-29T01:22:37.837Z,98305.63
2022-07-29T01:25:21.703Z,98305.53
2022-07-29T01:28:02.856Z,98299.03
2022-07-29T01:30:34.647Z,98299.94
2022-07-29T01:33:05.025Z,98299.97
2022-07-29T01:35:35.993Z,98298.25
2022-07-29T01:38:07.438Z,98305.53
2022-07-29T01:40:37.064Z,98297.31
2022-07-29T01:43:07.836Z,98292.75
2022-07-29T01:45:40.849Z,98292.50
2022-07-29T01:48:15.251Z,98284.16
2022-07-29T01:51:00.580Z,98301.69
2022-07-29T01:53:34.850Z,98298.19
2022-07-29T01:56:07.374Z,98315.34
2022-07-29T01:58:37.728Z,98329.66
2022-07-29T02:01:10.961Z,98334.69
2022-07-29T02:03:40.248Z,98343.31
2022-07-29T02:06:09.906Z,98344.69
2022-07-29T02:08:38.935Z,98348.25
2022-07-29T02:11:07.672Z,98343.84
2022-07-29T02:13:36.643Z,98346.59
2022-07-29T02:16:08.064Z,98352.31
2022-07-29T02:18:38.603Z,98341.66
2022-07-29T02:21:06.931Z,98347.72
2022-07-29T02:23:45.196Z,98358.34
2022-07-29T02:26:19.809Z,98371.72
2022-07-29T02:28:48.081Z,98373.88
2022-07-29T02:31:17.279Z,98380.97
2022-07-29T02:33:47.760Z,98389.13
2022-07-29T02:36:17.563Z,98389.44
2022-07-29T02:38:52.492Z,98389.44
2022-07-29T02:41:21.940Z,98389.75
2022-07-29T02:43:52.248Z,98361.06
2022-07-29T02:46:29.181Z,98375.81
2022-07-29T02:49:04.172Z,98370.09
2022-07-29T02:51:43.499Z,98367.63
2022-07-29T02:54:16.667Z,98375.00
2022-07-29T02:56:46.341Z,98372.00
2022-07-29T02:59:16.026Z,98374.19
2022-07-29T03:01:45.454Z,98373.38
2022-07-29T03:04:16.902Z,98382.88
2022-07-29T03:06:45.355Z,98385.03
2022-07-29T03:09:14.033Z,98387.22
2022-07-29T03:11:49.847Z,98396.69
2022-07-29T03:14:21.248Z,98397.56
2022-07-29T03:16:52.729Z,98396.47
2022-07-29T03:19:22.453Z,98388.59
2022-07-29T03:21:50.786Z,98370.06
2022-07-29T03:24:32.852Z,98383.19
2022-07-29T03:27:00.962Z,98362.72
2022-07-29T03:29:32.994Z,98357.81
2022-07-29T03:32:04.321Z,98353.41
2022-07-29T03:34:37.829Z,98348.78
2022-07-29T03:37:07.785Z,98354.00
2022-07-29T03:39:38.499Z,98364.91
2022-07-29T03:42:08.760Z,98365.19
2022-07-29T03:44:37.730Z,98352.88
2022-07-29T03:47:07.743Z,98340.84
2022-07-29T03:49:38.694Z,98361.91
2022-07-29T03:52:09.569Z,98347.69
2022-07-29T03:54:37.724Z,98347.41
2022-07-29T03:57:07.658Z,98354.53
2022-07-29T03:59:36.099Z,98357.81
2022-07-29T04:02:04.590Z,98359.16
2022-07-29T04:04:34.455Z,98348.75
2022-07-29T04:07:03.939Z,98346.63
2022-07-29T04:09:32.055Z,98344.38
2022-07-29T04:12:03.420Z,98337.47
2022-07-29T04:14:36.163Z,98325.75
2022-07-29T04:17:05.670Z,98335.91
2022-07-29T04:19:34.228Z,98346.31
2022-07-29T04:22:02.966Z,98346.19
2022-07-29T04:24:32.377Z,98345.41
2022-07-29T04:27:00.442Z,98346.78
2022-07-29T04:29:28.486Z,98328.25
2022-07-29T04:31:58.867Z,98342.47
2022-07-29T04:34:28.008Z,98349.59
2022-07-29T04:36:56.531Z,98338.94
2022-07-29T04:39:24.659Z,98343.78
2022-07-29T04:41:56.662Z,98346.84
2022-07-29T04:44:28.986Z,98347.41
2022-07-29T04:46:58.180Z,98340.03
2022-07-29T04:49:26.436Z,98364.06
2022-07-29T04:51:54.614Z,98379.06
2022-07-29T04:54:22.634Z,98382.63
2022-07-29T04:56:50.712Z,98376.34
2022-07-29T04:59:20.180Z,98356.06
2022-07-29T05:01:48.289Z,98340.56
2022-07-29T05:04:16.730Z,98322.78
2022-07-29T05:06:47.386Z,98330.88
2022-07-29T05:09:15.549Z,98350.63
2022-07-29T05:11:43.599Z,98358.88
2022-07-29T05:14:11.663Z,98360.47
2022-07-29T05:16:41.275Z,98356.56
2022-07-29T05:19:13.800Z,98361.00
2022-07-29T05:21:46.193Z,98366.41
2022-07-29T05:24:14.585Z,98363.03
2022-07-29T05:26:44.828Z,98361.97
2022-07-29T05:29:43.164Z,98374.53
2022-07-29T05:32:02.601Z,98352.97
2022-07-29T05:34:30.651Z,98364.94
2022-07-29T05:36:58.926Z,98358.75
2022-07-29T05:39:47.176Z,98349.25
2022-07-29T05:42:15.018Z,98341.56
2022-07-29T05:44:43.055Z,98309.41
2022-07-29T05:47:12.684Z,98311.94
2022-07-29T05:49:40.798Z,98325.28
2022-07-29T05:52:08.899Z,98315.69
2022-07-29T05:54:36.954Z,98327.31
2022-07-29T05:57:07.392Z,98341.22
2022-07-29T05:59:37.283Z,98331.63
2022-07-29T06:02:06.046Z,98340.63
2022-07-29T06:04:35.949Z,98349.03
2022-07-29T06:07:04.042Z,98346.09
2022-07-29T06:09:35.925Z,98343.28
2022-07-29T06:12:04.629Z,98331.72
2022-07-29T06:14:33.576Z,98334.06
2022-07-29T06:17:02.031Z,98354.41
2022-07-29T06:19:32.428Z,98351.84
2022-07-29T06:22:01.881Z,98342.31
2022-07-29T06:24:29.960Z,98359.84
2022-07-29T06:26:58.137Z,98369.28
2022-07-29T06:29:26.288Z,98342.47
2022-07-29T06:31:54.321Z,98367.41
2022-07-29T06:34:22.369Z,98359.00
2022-07-29T06:36:51.416Z,98356.19
2022-07-29T06:39:22.379Z,98356.31
2022-07-29T06:41:51.321Z,98356.75
2022-07-29T06:44:20.184Z,98355.03
2022-07-29T06:46:52.586Z,98364.44
2022-07-29T06:49:20.738Z,98371.41
2022-07-29T06:51:48.914Z,98357.34
2022-07-29T06:54:17.426Z,98352.50
2022-07-29T06:56:47.662Z,98360.19
2022-07-29T06:59:15.773Z,98348.31
2022-07-29T07:01:44.876Z,98362.31
2022-07-29T07:04:15.878Z,98353.00
2022-07-29T07:06:45.272Z,98356.81
2022-07-29T07:09:13.354Z,98364.38
2022-07-29T07:11:43.449Z,98364.16
2022-07-29T07:14:12.856Z,98371.75
2022-07-29T07:16:41.018Z,98364.31
2022-07-29T07:19:09.300Z,98357.50
2022-07-29T07:21:37.406Z,98356.69
2022-07-29T07:24:05.833Z,98364.22
2022-07-29T07:26:34.185Z,98365.97
2022-07-29T07:29:02.350Z,98363.38
2022-07-29T07:31:33.072Z,98368.59
2022-07-29T07:34:03.734Z,98359.53
2022-07-29T07:36:31.804Z,98364.81
2022-07-29T07:38:59.892Z,98371.72
2022-07-29T07:41:27.922Z,98365.47
2022-07-29T07:44:00.955Z,98365.09
2022-07-29T07:46:28.991Z,98367.66
2022-07-29T07:48:58.483Z,98368.50
2022-07-29T07:51:26.658Z,98373.47
2022-07-29T07:53:54.955Z,98371.66
2022-07-29T07:56:23.036Z,98369.63
2022-07-29T07:58:51.096Z,98374.78
2022-07-29T08:01:20.625Z,98373.06
2022-07-29T08:03:48.763Z,98374.88
2022-07-29T08:06:18.278Z,98367.94
2022-07-29T08:08:46.345Z,98372.69
2022-07-29T08:11:14.505Z,98365.84
2022-07-29T08:13:42.749Z,98369.44
2022-07-29T08:16:14.267Z,98368.25
2022-07-29T08:18:43.228Z,98369.94
2022-07-29T08:21:11.311Z,98369.78
2022-07-29T08:23:56.188Z,98366.13
2022-07-29T08:26:27.914Z,98374.94
2022-07-29T08:28:55.983Z,98374.28
2022-07-29T08:31:26.471Z,98371.16
2022-07-29T08:33:54.661Z,98381.38
2022-07-29T08:36:23.022Z,98376.22
2022-07-29T08:38:52.663Z,98369.00
2022-07-29T08:41:21.047Z,98366.34
2022-07-29T08:43:49.547Z,98369.25
2022-07-29T08:46:18.225Z,98372.91
2022-07-29T08:48:47.154Z,98363.63
2022-07-29T08:51:16.046Z,98368.00
2022-07-29T08:53:44.907Z,98366.22
2022-07-29T08:56:15.246Z,98370.94
2022-07-29T08:58:43.553Z,98367.38
2022-07-29T09:01:18.638Z,98366.72
2022-07-29T09:03:48.308Z,98363.91
2022-07-29T09:06:16.885Z,98365.91
2022-07-29T09:08:45.776Z,98370.63
2022-07-29T09:11:15.347Z,98364.38
2022-07-29T09:13:43.512Z,98356.78
2022-07-29T09:16:11.642Z,98364.53
2022-07-29T09:18:40.996Z,98362.63
2022-07-29T09:21:27.742Z,98368.19
2022-07-29T09:24:05.913Z,98362.00
2022-07-29T09:26:36.264Z,98373.19
2022-07-29T09:29:10.513Z,98365.63
2022-07-29T09:31:39.879Z,98360.66
2022-07-29T09:34:09.383Z,98360.81
2022-07-29T09:36:40.917Z,98360.41
2022-07-29T09:39:09.428Z,98355.47
2022-07-29T09:41:49.004Z,98353.78
2022-07-29T09:44:17.623Z,98351.13
2022-07-29T09:46:59.109Z,98348.00
2022-07-29T09:49:27.529Z,98334.31
2022-07-29T09:52:03.014Z,98344.41
2022-07-29T09:54:37.447Z,98338.66
2022-07-29T09:57:07.742Z,98335.06
2022-07-29T09:59:36.193Z,98346.31
2022-07-29T10:02:23.928Z,98348.50
2022-07-29T10:04:52.127Z,98336.91
2022-07-29T10:07:20.508Z,98345.75
2022-07-29T10:09:51.855Z,98341.78
2022-07-29T10:12:21.283Z,98341.91
2022-07-29T10:14:52.683Z,98341.97
2022-07-29T10:17:21.110Z,98340.75
2022-07-29T10:19:50.337Z,98352.13
2022-07-29T10:22:43.356Z,98347.91
2022-07-29T10:25:06.785Z,98346.97
2022-07-29T10:27:36.495Z,98336.78
2022-07-29T10:30:05.481Z,98331.09
2022-07-29T10:32:41.330Z,98337.34
2022-07-29T10:35:23.357Z,98339.84
2022-07-29T10:38:16.522Z,98341.69
2022-07-29T10:44:00.150Z,98335.50
2022-07-29T10:46:28.942Z,98330.13
2022-07-29T10:49:09.927Z,98321.94
2022-07-29T10:51:59.685Z,98331.09
2022-07-29T10:54:39.698Z,98333.47
2022-07-29T10:57:20.255Z,98328.97
2022-07-29T11:03:52.424Z,98319.97
2022-07-29T11:10:27.038Z,98308.38
2022-07-29T11:13:02.133Z,98312.38
2022-07-29T11:15:31.676Z,98311.84
2022-07-29T11:18:15.126Z,98300.28
2022-07-29T11:20:48.261Z,98311.09
2022-07-29T11:23:33.339Z,98299.44
2022-07-29T11:26:21.122Z,98299.50
2022-07-29T11:28:53.313Z,98304.41
2022-07-29T11:31:33.523Z,98300.34
2022-07-29T11:34:17.334Z,98299.75
2022-07-29T11:37:07.811Z,98302.41
2022-07-29T11:39:37.817Z,98299.63
2022-07-29T11:42:28.257Z,98306.84
2022-07-29T11:45:42.082Z,98310.59
2022-07-29T11:47:55.493Z,98305.41
2022-07-29T11:50:37.181Z,98300.78
2022-07-29T11:53:11.310Z,98307.75
2022-07-29T11:55:51.105Z,98315.22
2022-07-29T11:58:25.111Z,98306.69
2022-07-29T12:00:55.272Z,98306.47
2022-07-29T12:06:17.487Z,98313.63
2022-07-29T12:08:47.373Z,98307.88
2022-07-29T12:11:21.678Z,98302.63
2022-07-29T12:13:50.681Z,98302.84
2022-07-29T12:16:25.767Z,98298.00
2022-07-29T12:19:04.263Z,98306.44
2022-07-29T12:21:49.411Z,98313.34
2022-07-29T12:24:26.701Z,98308.22
2022-07-29T12:26:57.439Z,98314.38
2022-07-29T12:29:34.857Z,98318.38
2022-07-29T12:32:04.639Z,98318.25
2022-07-29T12:34:35.291Z,98324.06
2022-07-29T12:37:04.423Z,98314.81
2022-07-29T12:39:32.831Z,98315.19
2022-07-29T12:42:04.033Z,98308.50
2022-07-29T12:44:45.483Z,98303.66
2022-07-29T12:47:13.568Z,98312.69
2022-07-29T12:49:44.104Z,98308.84
2022-07-29T12:52:28.435Z,98310.56
2022-07-29T12:54:56.527Z,98318.09
2022-07-29T12:57:26.038Z,98311.53
2022-07-29T13:00:08.735Z,98306.50
2022-07-29T13:02:37.574Z,98308.47
2022-07-29T13:05:07.147Z,98317.63
2022-07-29T13:07:55.192Z,98314.84
2022-07-29T13:10:25.788Z,98323.53
2022-07-29T13:13:05.059Z,98321.47
2022-07-29T13:15:33.331Z,98324.97
2022-07-29T13:18:04.743Z,98321.84
2022-07-29T13:20:33.198Z,98327.84
2022-07-29T13:23:02.010Z,98326.31
2022-07-29T13:25:31.386Z,98319.66
2022-07-29T13:28:00.057Z,98331.53
2022-07-29T13:30:30.110Z,98331.69
2022-07-29T13:32:58.333Z,98323.34
2022-07-29T13:35:30.661Z,98329.81
2022-07-29T13:37:58.796Z,98328.19
2022-07-29T13:40:27.289Z,98327.66
2022-07-29T13:42:55.387Z,98335.59
2022-07-29T13:45:25.548Z,98327.44
2022-07-29T13:48:00.517Z,98333.56
2022-07-29T13:50:28.611Z,98334.16
2022-07-29T13:52:56.725Z,98334.38
2022-07-29T13:55:24.842Z,98320.84
2022-07-29T13:57:52.986Z,98320.63
2022-07-29T14:00:21.070Z,98315.63
2022-07-29T14:02:49.184Z,98308.88
2022-07-29T14:05:18.593Z,98308.75
2022-07-29T14:07:46.673Z,98304.72
2022-07-29T14:10:18.461Z,98295.59
2022-07-29T14:12:48.176Z,98299.50
2022-07-29T14:15:16.275Z,98296.38
2022-07-29T14:17:44.368Z,98286.31
2022-07-29T14:20:16.473Z,98293.16
2022-07-29T14:22:49.348Z,98288.97
2022-07-29T14:25:21.227Z,98287.78
2022-07-29T14:27:51.736Z,98290.63
2022-07-29T14:30:19.918Z,98284.44
2022-07-29T14:32:48.363Z,98285.94
2022-07-29T14:35:16.651Z,98277.63
2022-07-29T14:37:44.734Z,98294.63
2022-07-29T14:40:14.228Z,98303.13
2022-07-29T14:42:42.465Z,98311.34
2022-07-29T14:45:11.318Z,98304.78
2022-07-29T14:47:39.675Z,98312.28
2022-07-29T14:50:08.241Z,98315.22
2022-07-29T14:52:36.803Z,98309.19
2022-07-29T14:55:05.438Z,98312.19
2022-07-29T14:57:46.241Z,98320.00
2022-07-29T15:00:14.542Z,98311.97
2022-07-29T15:03:01.005Z,98328.00
2022-07-29T15:05:30.238Z,98317.38
2022-07-29T15:07:58.394Z,98319.03
2022-07-29T15:10:27.183Z,98320.78
2022-07-29T15:12:56.743Z,98321.13
2022-07-29T15:15:24.982Z,98324.84
2022-07-29T15:17:53.083Z,98325.56
2022-07-29T15:20:22.255Z,98325.69
2022-07-29T15:22:50.328Z,98325.09
2022-07-29T15:25:18.466Z,98329.81
2022-07-29T15:27:49.738Z,98320.22
2022-07-29T15:30:32.509Z,98325.63
2022-07-29T15:33:02.056Z,98318.41
2022-07-29T15:35:30.123Z,98329.81
2022-07-29T15:38:00.773Z,98328.03
2022-07-29T15:40:28.985Z,98330.47
2022-07-29T15:42:57.026Z,98329.31
2022-07-29T15:45:26.644Z,98332.31
2022-07-29T15:48:00.181Z,98338.44
2022-07-29T15:50:28.310Z,98343.56
2022-07-29T15:52:56.473Z,98333.44
2022-07-29T15:55:27.365Z,98342.56
2022-07-29T15:58:00.275Z,98336.84
2022-07-29T16:00:30.221Z,98331.91
2022-07-29T16:02:58.530Z,98327.84
2022-07-29T16:05:29.527Z,98328.84
2022-07-29T16:08:00.819Z,98332.22
2022-07-29T16:10:29.027Z,98328.22
2022-07-29T16:12:59.368Z,98328.78
2022-07-29T16:15:27.453Z,98320.16
2022-07-29T16:17:56.892Z,98322.53
2022-07-29T16:20:25.376Z,98319.91
2022-07-29T16:22:53.475Z,98324.44
2022-07-29T16:25:29.575Z,98324.69
2022-07-29T16:28:06.713Z,98328.75
2022-07-29T16:30:35.467Z,98319.69
2022-07-29T16:33:08.230Z,98321.91
2022-07-29T16:35:39.207Z,98312.53
2022-07-29T16:38:08.100Z,98317.56
2022-07-29T16:40:36.244Z,98321.88
2022-07-29T16:43:04.382Z,98322.44
2022-07-29T16:45:45.511Z,98314.53
2022-07-29T16:48:18.086Z,98325.34
2022-07-29T16:50:46.932Z,98318.53
2022-07-29T16:53:15.172Z,98321.81
2022-07-29T16:55:43.294Z,98327.97
2022-07-29T16:58:12.020Z,98325.69
2022-07-29T17:00:40.317Z,98331.41
2022-07-29T17:03:08.490Z,98333.94
2022-07-29T17:05:52.583Z,98324.38
2022-07-29T17:08:22.800Z,98325.00
2022-07-29T17:10:51.107Z,98321.63
2022-07-29T17:13:21.786Z,98334.03
2022-07-29T17:15:49.933Z,98333.75
2022-07-29T17:18:18.081Z,98325.63
2022-07-29T17:20:47.640Z,98333.69
2022-07-29T17:23:15.711Z,98326.00
2022-07-29T17:25:43.861Z,98328.84
2022-07-29T17:28:11.965Z,98334.53
2022-07-29T17:30:40.131Z,98336.84
2022-07-29T17:33:08.229Z,98338.13
2022-07-29T17:35:54.086Z,98332.69
2022-07-29T17:38:23.553Z,98334.47
2022-07-29T17:40:51.667Z,98345.78
2022-07-29T17:43:19.787Z,98340.56
2022-07-29T17:45:49.469Z,98342.41
2022-07-29T17:48:19.737Z,98337.66
2022-07-29T17:50:47.969Z,98349.53
2022-07-29T17:53:16.886Z,98347.41
2022-07-29T17:55:50.801Z,98345.75
2022-07-29T17:58:19.446Z,98343.19
2022-07-29T18:00:48.174Z,98341.81
2022-07-29T18:03:16.795Z,98345.44
2022-07-29T18:05:48.131Z,98342.38
2022-07-29T18:08:16.934Z,98352.78
2022-07-29T18:10:46.373Z,98349.50
2022-07-29T18:13:17.846Z,98343.53
2022-07-29T18:15:46.543Z,98354.19
2022-07-29T18:18:14.930Z,98352.13
2022-07-29T18:20:43.759Z,98350.50
2022-07-29T18:23:14.493Z,98352.50
2022-07-29T18:25:42.991Z,98357.72
2022-07-29T18:28:11.484Z,98358.94
2022-07-29T18:30:46.108Z,98356.66
2022-07-29T18:33:21.592Z,98356.88
2022-07-29T18:36:07.698Z,98360.13
2022-07-29T18:38:40.829Z,98356.22
2022-07-29T18:41:09.432Z,98359.34
2022-07-29T18:43:37.602Z,98353.63
2022-07-29T18:46:07.276Z,98357.59
2022-07-29T18:48:35.556Z,98359.72
2022-07-29T18:51:09.339Z,98359.56
2022-07-29T18:53:38.828Z,98359.41
2022-07-29T18:56:06.978Z,98356.44
2022-07-29T18:58:38.215Z,98367.81
2022-07-29T19:01:08.341Z,98368.13
2022-07-29T19:03:37.185Z,98375.06
2022-07-29T19:06:06.774Z,98374.06
2022-07-29T19:08:37.491Z,98374.97
2022-07-29T19:11:05.535Z,98380.50
2022-07-29T19:13:35.521Z,98377.50
2022-07-29T19:16:03.779Z,98377.88
2022-07-29T19:18:36.582Z,98387.59
2022-07-29T19:21:06.696Z,98389.84
2022-07-29T19:24:06.024Z,98392.63
2022-07-29T19:26:23.085Z,98405.28
2022-07-29T19:28:54.591Z,98406.16
2022-07-29T19:31:22.969Z,98412.53
2022-07-29T19:33:52.952Z,98417.00
2022-07-29T19:36:21.235Z,98435.97
2022-07-29T19:38:49.303Z,98434.69
2022-07-29T19:41:17.551Z,98436.47
2022-07-29T19:43:52.207Z,98451.66
2022-07-29T19:46:23.849Z,98448.31
2022-07-29T19:48:54.023Z,98458.66
2022-07-29T19:51:22.474Z,98449.69
2022-07-29T19:53:50.674Z,98455.31
2022-07-29T19:56:19.148Z,98457.31
2022-07-29T19:58:47.570Z,98458.34
2022-07-29T20:01:16.652Z,98438.94
2022-07-29T20:03:47.180Z,98461.88
2022-07-29T20:06:19.018Z,98466.06
2022-07-29T20:08:47.173Z,98464.75
2022-07-29T20:11:15.261Z,98462.41
2022-07-29T20:13:43.352Z,98466.88
2022-07-29T20:16:11.585Z,98471.31
2022-07-29T20:18:40.217Z,98472.19
2022-07-29T20:21:08.340Z,98466.38
2022-07-29T20:23:37.829Z,98470.53
2022-07-29T20:26:09.222Z,98432.56
2022-07-29T20:28:40.269Z,98462.78
2022-07-29T20:31:08.753Z,98460.66
2022-07-29T20:33:37.024Z,98458.03
2022-07-29T20:36:05.502Z,98442.13
2022-07-29T20:38:33.804Z,98453.94
2022-07-29T20:41:03.316Z,98448.88
2022-07-29T20:43:31.579Z,98460.16
2022-07-29T20:46:07.039Z,98468.50
2022-07-29T20:48:37.365Z,98460.78
2022-07-29T20:51:05.494Z,98463.16
2022-07-29T20:53:33.823Z,98463.97
2022-07-29T20:56:03.361Z,98464.78
2022-07-29T20:58:32.594Z,98463.25
2022-07-29T21:01:00.723Z,98451.34
2022-07-29T21:03:28.789Z,98456.59
2022-07-29T21:05:56.834Z,98456.06
2022-07-29T21:08:27.623Z,98470.63
2022-07-29T21:10:56.031Z,98473.50
2022-07-29T21:13:25.550Z,98459.16
2022-07-29T21:15:57.901Z,98462.19
2022-07-29T21:18:30.592Z,98463.34
2022-07-29T21:21:01.387Z,98463.84
2022-07-29T21:23:31.615Z,98468.88
2022-07-29T21:26:00.013Z,98465.19
2022-07-29T21:28:30.373Z,98477.31
2022-07-29T21:31:01.782Z,98476.44
2022-07-29T21:33:30.657Z,98488.66
2022-07-29T21:36:20.187Z,98489.34
2022-07-29T21:38:46.721Z,98484.94
2022-07-29T21:41:15.405Z,98487.25
2022-07-29T21:43:46.012Z,98490.28
2022-07-29T21:46:16.490Z,98478.38
2022-07-29T21:48:44.831Z,98481.69
2022-07-29T21:51:12.931Z,98484.53
2022-07-29T21:53:43.311Z,98485.44
2022-07-29T21:56:14.603Z,98483.72
2022-07-29T21:58:43.254Z,98485.53
2022-07-29T22:02:38.779Z,98486.13
2022-07-29T22:05:07.151Z,98484.00
2022-07-29T22:07:54.330Z,98466.06
2022-07-29T22:10:23.359Z,98485.22
2022-07-29T22:12:51.899Z,98489.13
2022-07-29T22:15:20.189Z,98493.31
2022-07-29T22:17:49.952Z,98492.34
2022-07-29T22:20:18.115Z,98494.94
2022-07-29T22:22:46.646Z,98486.56
2022-07-29T22:25:14.705Z,98499.56
2022-07-29T22:27:42.749Z,98498.69
2022-07-29T22:30:11.973Z,98502.13
2022-07-29T22:32:40.179Z,98507.63
2022-07-29T22:35:09.783Z,98507.31
2022-07-29T22:37:42.992Z,98511.94
2022-07-29T22:40:11.738Z,98516.59
2022-07-29T22:42:40.669Z,98514.06
2022-07-29T22:45:09.994Z,98511.31
2022-07-29T22:47:45.683Z,98517.69
2022-07-29T22:50:17.755Z,98520.06
2022-07-29T22:52:46.092Z,98519.66
2022-07-29T22:55:14.336Z,98510.91
2022-07-29T22:57:42.387Z,98513.78
2022-07-29T23:00:13.497Z,98509.75
2022-07-29T23:02:42.141Z,98504.22
2022-07-29T23:05:11.177Z,98499.56
2022-07-29T23:07:40.799Z,98497.97
2022-07-29T23:10:09.280Z,98505.69
2022-07-29T23:12:37.342Z,98507.09
2022-07-29T23:15:08.260Z,98510.13
2022-07-29T23:17:36.913Z,98515.53
2022-07-29T23:20:06.426Z,98522.00
2022-07-29T23:22:34.523Z,98521.69
2022-07-29T23:25:03.972Z,98523.28
2022-07-29T23:27:32.019Z,98527.66
2022-07-29T23:30:02.634Z,98529.88
2022-07-29T23:32:30.725Z,98537.34
2022-07-29T23:34:58.768Z,98534.25
2022-07-29T23:37:26.956Z,98534.56
2022-07-29T23:39:56.014Z,98550.47
2022-07-29T23:42:25.404Z,98553.47
2022-07-29T23:44:53.459Z,98548.81
2022-07-29T23:47:21.542Z,98542.53
2022-07-29T23:49:51.667Z,98549.34
2022-07-29T23:52:19.793Z,98551.25
2022-07-29T23:54:47.941Z,98554.22
2022-07-29T23:57:18.270Z,98550.16
2022-07-29T23:59:47.657Z,98549.63
